sensor_id;sensor_type;location;lat;lon;timestamp;temperature;humidity
22940;DHT22;11636;52.086;5.090;2024-02-15T00:00:30;11.80;99.90
22940;DHT22;11636;52.086;5.090;2024-02-15T00:02:58;11.80;99.90
22940;DHT22;11636;52.086;5.090;2024-02-15T00:05:32;11.80;99.90
22940;DHT22;11636;52.086;5.090;2024-02-15T00:07:59;11.80;99.90
22940;DHT22;11636;52.086;5.090;2024-02-15T00:10:32;11.80;99.90
22940;DHT22;11636;52.086;5.090;2024-02-15T00:13:05;11.80;99.90
22940;DHT22;11636;52.086;5.090;2024-02-15T00:15:32;11.80;99.90
22940;DHT22;11636;52.086;5.090;2024-02-15T00:18:09;11.80;99.90
22940;DHT22;11636;52.086;5.090;2024-02-15T00:20:36;11.80;99.90
22940;DHT22;11636;52.086;5.090;2024-02-15T00:23:11;11.80;99.90
22940;DHT22;11636;52.086;5.090;2024-02-15T00:25:39;11.80;99.90
22940;DHT22;11636;52.086;5.090;2024-02-15T00:28:12;11.80;99.90
22940;DHT22;11636;52.086;5.090;2024-02-15T00:30:40;11.80;99.90
22940;DHT22;11636;52.086;5.090;2024-02-15T00:33:13;11.80;99.90
22940;DHT22;11636;52.086;5.090;2024-02-15T00:35:41;11.80;99.90
22940;DHT22;11636;52.086;5.090;2024-02-15T00:38:14;11.80;99.90
22940;DHT22;11636;52.086;5.090;2024-02-15T00:40:42;11.80;99.90
22940;DHT22;11636;52.086;5.090;2024-02-15T00:43:09;11.80;99.90
22940;DHT22;11636;52.086;5.090;2024-02-15T00:45:42;11.80;99.90
22940;DHT22;11636;52.086;5.090;2024-02-15T00:48:15;11.80;99.90
22940;DHT22;11636;52.086;5.090;2024-02-15T00:50:48;11.80;99.90
22940;DHT22;11636;52.086;5.090;2024-02-15T00:53:22;11.80;99.90
22940;DHT22;11636;52.086;5.090;2024-02-15T00:55:48;11.80;99.90
22940;DHT22;11636;52.086;5.090;2024-02-15T00:58:15;11.80;99.90
22940;DHT22;11636;52.086;5.090;2024-02-15T01:00:48;11.80;99.90
22940;DHT22;11636;52.086;5.090;2024-02-15T01:03:16;11.80;99.90
22940;DHT22;11636;52.086;5.090;2024-02-15T01:05:49;11.80;99.90
22940;DHT22;11636;52.086;5.090;2024-02-15T01:08:18;11.80;99.90
22940;DHT22;11636;52.086;5.090;2024-02-15T01:10:46;11.80;99.90
22940;DHT22;11636;52.086;5.090;2024-02-15T01:13:18;11.80;99.90
22940;DHT22;11636;52.086;5.090;2024-02-15T01:15:45;11.80;99.90
22940;DHT22;11636;52.086;5.090;2024-02-15T01:18:18;11.80;99.90
22940;DHT22;11636;52.086;5.090;2024-02-15T01:20:52;11.80;99.90
22940;DHT22;11636;52.086;5.090;2024-02-15T01:23:20;11.80;99.90
22940;DHT22;11636;52.086;5.090;2024-02-15T01:25:53;11.80;99.90
22940;DHT22;11636;52.086;5.090;2024-02-15T01:28:26;11.80;99.90
22940;DHT22;11636;52.086;5.090;2024-02-15T01:30:53;11.80;99.90
22940;DHT22;11636;52.086;5.090;2024-02-15T01:33:27;11.80;99.90
22940;DHT22;11636;52.086;5.090;2024-02-15T01:35:54;11.70;99.90
22940;DHT22;11636;52.086;5.090;2024-02-15T01:38:29;11.80;99.90
22940;DHT22;11636;52.086;5.090;2024-02-15T01:41:03;11.70;99.90
22940;DHT22;11636;52.086;5.090;2024-02-15T01:43:36;11.70;99.90
22940;DHT22;11636;52.086;5.090;2024-02-15T01:46:09;11.80;99.90
22940;DHT22;11636;52.086;5.090;2024-02-15T01:48:43;11.80;99.90
22940;DHT22;11636;52.086;5.090;2024-02-15T01:51:11;11.80;99.90
22940;DHT22;11636;52.086;5.090;2024-02-15T01:53:40;11.80;99.90
22940;DHT22;11636;52.086;5.090;2024-02-15T01:56:16;11.80;99.90
22940;DHT22;11636;52.086;5.090;2024-02-15T01:58:45;11.80;99.90
22940;DHT22;11636;52.086;5.090;2024-02-15T02:01:19;11.80;99.90
22940;DHT22;11636;52.086;5.090;2024-02-15T02:03:47;11.80;99.90
22940;DHT22;11636;52.086;5.090;2024-02-15T02:06:15;11.80;99.90
22940;DHT22;11636;52.086;5.090;2024-02-15T02:08:48;11.80;99.90
22940;DHT22;11636;52.086;5.090;2024-02-15T02:11:16;11.70;99.90
22940;DHT22;11636;52.086;5.090;2024-02-15T02:13:49;11.70;99.90
22940;DHT22;11636;52.086;5.090;2024-02-15T02:16:28;11.60;99.90
22940;DHT22;11636;52.086;5.090;2024-02-15T02:19:02;11.60;99.90
22940;DHT22;11636;52.086;5.090;2024-02-15T02:21:29;11.50;99.90
22940;DHT22;11636;52.086;5.090;2024-02-15T02:23:57;11.50;99.90
22940;DHT22;11636;52.086;5.090;2024-02-15T02:26:31;11.40;99.90
22940;DHT22;11636;52.086;5.090;2024-02-15T02:28:57;11.40;99.90
22940;DHT22;11636;52.086;5.090;2024-02-15T02:31:34;11.40;99.90
22940;DHT22;11636;52.086;5.090;2024-02-15T02:34:03;11.40;99.90
22940;DHT22;11636;52.086;5.090;2024-02-15T02:36:37;11.40;99.90
22940;DHT22;11636;52.086;5.090;2024-02-15T02:39:04;11.40;99.90
22940;DHT22;11636;52.086;5.090;2024-02-15T02:41:38;11.50;99.90
22940;DHT22;11636;52.086;5.090;2024-02-15T02:44:05;11.50;99.90
22940;DHT22;11636;52.086;5.090;2024-02-15T02:46:38;11.50;99.90
22940;DHT22;11636;52.086;5.090;2024-02-15T02:49:04;11.50;99.90
22940;DHT22;11636;52.086;5.090;2024-02-15T02:51:38;11.50;99.90
22940;DHT22;11636;52.086;5.090;2024-02-15T02:54:05;11.50;99.90
22940;DHT22;11636;52.086;5.090;2024-02-15T02:56:40;11.60;99.90
22940;DHT22;11636;52.086;5.090;2024-02-15T02:59:13;11.60;99.90
22940;DHT22;11636;52.086;5.090;2024-02-15T03:01:47;11.60;99.90
22940;DHT22;11636;52.086;5.090;2024-02-15T03:04:17;11.60;99.90
22940;DHT22;11636;52.086;5.090;2024-02-15T03:06:51;11.60;99.90
22940;DHT22;11636;52.086;5.090;2024-02-15T03:09:25;11.60;99.90
22940;DHT22;11636;52.086;5.090;2024-02-15T03:11:56;11.60;99.90
22940;DHT22;11636;52.086;5.090;2024-02-15T03:14:30;11.60;99.90
22940;DHT22;11636;52.086;5.090;2024-02-15T03:17:05;11.60;99.90
22940;DHT22;11636;52.086;5.090;2024-02-15T03:19:32;11.50;99.90
22940;DHT22;11636;52.086;5.090;2024-02-15T03:21:59;11.60;99.90
22940;DHT22;11636;52.086;5.090;2024-02-15T03:24:33;11.60;99.90
22940;DHT22;11636;52.086;5.090;2024-02-15T03:27:13;11.50;99.90
22940;DHT22;11636;52.086;5.090;2024-02-15T03:29:46;11.60;99.90
22940;DHT22;11636;52.086;5.090;2024-02-15T03:32:13;11.60;99.90
22940;DHT22;11636;52.086;5.090;2024-02-15T03:34:40;11.50;99.90
22940;DHT22;11636;52.086;5.090;2024-02-15T03:37:15;11.50;99.90
22940;DHT22;11636;52.086;5.090;2024-02-15T03:39:41;11.60;99.90
22940;DHT22;11636;52.086;5.090;2024-02-15T03:42:16;11.60;99.90
22940;DHT22;11636;52.086;5.090;2024-02-15T03:44:42;11.60;99.90
22940;DHT22;11636;52.086;5.090;2024-02-15T03:47:16;11.60;99.90
22940;DHT22;11636;52.086;5.090;2024-02-15T03:49:42;11.60;99.90
22940;DHT22;11636;52.086;5.090;2024-02-15T03:52:09;11.60;99.90
22940;DHT22;11636;52.086;5.090;2024-02-15T03:54:44;11.60;99.90
22940;DHT22;11636;52.086;5.090;2024-02-15T03:57:17;11.60;99.90
22940;DHT22;11636;52.086;5.090;2024-02-15T03:59:43;11.60;99.90
22940;DHT22;11636;52.086;5.090;2024-02-15T04:02:26;11.60;99.90
22940;DHT22;11636;52.086;5.090;2024-02-15T04:05:00;11.60;99.90
22940;DHT22;11636;52.086;5.090;2024-02-15T04:07:34;11.60;99.90
22940;DHT22;11636;52.086;5.090;2024-02-15T04:10:08;11.60;99.90
22940;DHT22;11636;52.086;5.090;2024-02-15T04:12:35;11.60;99.90
22940;DHT22;11636;52.086;5.090;2024-02-15T04:15:10;11.60;99.90
22940;DHT22;11636;52.086;5.090;2024-02-15T04:17:43;11.60;99.90
22940;DHT22;11636;52.086;5.090;2024-02-15T04:20:18;11.60;99.90
22940;DHT22;11636;52.086;5.090;2024-02-15T04:22:45;11.60;99.90
22940;DHT22;11636;52.086;5.090;2024-02-15T04:25:20;11.60;99.90
22940;DHT22;11636;52.086;5.090;2024-02-15T04:27:54;11.60;99.90
22940;DHT22;11636;52.086;5.090;2024-02-15T04:30:28;11.60;99.90
22940;DHT22;11636;52.086;5.090;2024-02-15T04:32:54;11.60;99.90
22940;DHT22;11636;52.086;5.090;2024-02-15T04:35:22;11.50;99.90
22940;DHT22;11636;52.086;5.090;2024-02-15T04:37:55;11.50;99.90
22940;DHT22;11636;52.086;5.090;2024-02-15T04:40:22;11.50;99.90
22940;DHT22;11636;52.086;5.090;2024-02-15T04:42:55;11.50;99.90
22940;DHT22;11636;52.086;5.090;2024-02-15T04:45:21;11.60;99.90
22940;DHT22;11636;52.086;5.090;2024-02-15T04:47:49;11.50;99.90
22940;DHT22;11636;52.086;5.090;2024-02-15T04:50:25;11.50;99.90
22940;DHT22;11636;52.086;5.090;2024-02-15T04:52:52;11.50;99.90
22940;DHT22;11636;52.086;5.090;2024-02-15T04:55:20;11.50;99.90
22940;DHT22;11636;52.086;5.090;2024-02-15T04:57:53;11.50;99.90
22940;DHT22;11636;52.086;5.090;2024-02-15T05:00:23;11.50;99.90
22940;DHT22;11636;52.086;5.090;2024-02-15T05:02:56;11.50;99.90
22940;DHT22;11636;52.086;5.090;2024-02-15T05:05:23;11.50;99.90
22940;DHT22;11636;52.086;5.090;2024-02-15T05:07:51;11.50;99.90
22940;DHT22;11636;52.086;5.090;2024-02-15T05:10:25;11.60;99.90
22940;DHT22;11636;52.086;5.090;2024-02-15T05:12:58;11.50;99.90
22940;DHT22;11636;52.086;5.090;2024-02-15T05:15:27;11.60;99.90
22940;DHT22;11636;52.086;5.090;2024-02-15T05:18:01;11.60;99.90
22940;DHT22;11636;52.086;5.090;2024-02-15T05:20:34;11.60;99.90
22940;DHT22;11636;52.086;5.090;2024-02-15T05:23:07;11.60;99.90
22940;DHT22;11636;52.086;5.090;2024-02-15T05:25:34;11.60;99.90
22940;DHT22;11636;52.086;5.090;2024-02-15T05:28:08;11.60;99.90
22940;DHT22;11636;52.086;5.090;2024-02-15T05:30:35;11.60;99.90
22940;DHT22;11636;52.086;5.090;2024-02-15T05:33:11;11.60;99.90
22940;DHT22;11636;52.086;5.090;2024-02-15T05:35:38;11.60;99.90
22940;DHT22;11636;52.086;5.090;2024-02-15T05:38:14;11.60;99.90
22940;DHT22;11636;52.086;5.090;2024-02-15T05:40:43;11.60;99.90
22940;DHT22;11636;52.086;5.090;2024-02-15T05:43:17;11.60;99.90
22940;DHT22;11636;52.086;5.090;2024-02-15T05:45:44;11.60;99.90
22940;DHT22;11636;52.086;5.090;2024-02-15T05:48:19;11.60;99.90
22940;DHT22;11636;52.086;5.090;2024-02-15T05:50:46;11.60;99.90
22940;DHT22;11636;52.086;5.090;2024-02-15T05:53:13;11.60;99.90
22940;DHT22;11636;52.086;5.090;2024-02-15T05:55:47;11.60;99.90
22940;DHT22;11636;52.086;5.090;2024-02-15T05:58:16;11.60;99.90
22940;DHT22;11636;52.086;5.090;2024-02-15T06:00:43;11.60;99.90
22940;DHT22;11636;52.086;5.090;2024-02-15T06:03:20;11.60;99.90
22940;DHT22;11636;52.086;5.090;2024-02-15T06:05:53;11.60;99.90
22940;DHT22;11636;52.086;5.090;2024-02-15T06:08:31;11.60;99.90
22940;DHT22;11636;52.086;5.090;2024-02-15T06:10:58;11.60;99.90
22940;DHT22;11636;52.086;5.090;2024-02-15T06:13:32;11.60;99.90
22940;DHT22;11636;52.086;5.090;2024-02-15T06:16:12;11.60;99.90
22940;DHT22;11636;52.086;5.090;2024-02-15T06:18:38;11.60;99.90
22940;DHT22;11636;52.086;5.090;2024-02-15T06:21:12;11.60;99.90
22940;DHT22;11636;52.086;5.090;2024-02-15T06:23:39;11.60;99.90
22940;DHT22;11636;52.086;5.090;2024-02-15T06:26:12;11.60;99.90
22940;DHT22;11636;52.086;5.090;2024-02-15T06:28:39;11.60;99.90
22940;DHT22;11636;52.086;5.090;2024-02-15T06:31:31;11.60;99.90
22940;DHT22;11636;52.086;5.090;2024-02-15T06:34:16;11.60;99.90
22940;DHT22;11636;52.086;5.090;2024-02-15T06:37:08;11.60;99.90
22940;DHT22;11636;52.086;5.090;2024-02-15T06:39:53;11.60;99.90
22940;DHT22;11636;52.086;5.090;2024-02-15T06:42:27;11.60;99.90
22940;DHT22;11636;52.086;5.090;2024-02-15T06:44:57;11.60;99.90
22940;DHT22;11636;52.086;5.090;2024-02-15T06:47:24;11.60;99.90
22940;DHT22;11636;52.086;5.090;2024-02-15T06:49:58;11.60;99.90
22940;DHT22;11636;52.086;5.090;2024-02-15T06:52:25;11.60;99.90
22940;DHT22;11636;52.086;5.090;2024-02-15T06:54:58;11.60;99.90
22940;DHT22;11636;52.086;5.090;2024-02-15T06:57:33;11.60;99.90
22940;DHT22;11636;52.086;5.090;2024-02-15T07:00:05;11.60;99.90
22940;DHT22;11636;52.086;5.090;2024-02-15T07:02:42;11.60;99.90
22940;DHT22;11636;52.086;5.090;2024-02-15T07:05:17;11.60;99.90
22940;DHT22;11636;52.086;5.090;2024-02-15T07:07:50;11.60;99.90
22940;DHT22;11636;52.086;5.090;2024-02-15T07:10:17;11.60;99.90
22940;DHT22;11636;52.086;5.090;2024-02-15T07:12:44;11.60;99.90
22940;DHT22;11636;52.086;5.090;2024-02-15T07:15:17;11.60;99.90
22940;DHT22;11636;52.086;5.090;2024-02-15T07:17:50;11.70;99.90
22940;DHT22;11636;52.086;5.090;2024-02-15T07:20:21;11.70;99.90
22940;DHT22;11636;52.086;5.090;2024-02-15T07:22:56;11.70;99.90
22940;DHT22;11636;52.086;5.090;2024-02-15T07:25:31;11.70;99.90
22940;DHT22;11636;52.086;5.090;2024-02-15T07:28:04;11.70;99.90
22940;DHT22;11636;52.086;5.090;2024-02-15T07:30:38;11.70;99.90
22940;DHT22;11636;52.086;5.090;2024-02-15T07:33:05;11.70;99.90
22940;DHT22;11636;52.086;5.090;2024-02-15T07:35:33;11.70;99.90
22940;DHT22;11636;52.086;5.090;2024-02-15T07:38:08;11.70;99.90
22940;DHT22;11636;52.086;5.090;2024-02-15T07:40:36;11.70;99.90
22940;DHT22;11636;52.086;5.090;2024-02-15T07:43:12;11.70;99.90
22940;DHT22;11636;52.086;5.090;2024-02-15T07:45:40;11.70;99.90
22940;DHT22;11636;52.086;5.090;2024-02-15T07:48:14;11.70;99.90
22940;DHT22;11636;52.086;5.090;2024-02-15T07:50:41;11.70;99.90
22940;DHT22;11636;52.086;5.090;2024-02-15T07:53:16;11.70;99.90
22940;DHT22;11636;52.086;5.090;2024-02-15T07:55:43;11.70;99.90
22940;DHT22;11636;52.086;5.090;2024-02-15T07:58:10;11.70;99.90
22940;DHT22;11636;52.086;5.090;2024-02-15T08:00:46;11.70;99.90
22940;DHT22;11636;52.086;5.090;2024-02-15T08:03:12;11.70;99.90
22940;DHT22;11636;52.086;5.090;2024-02-15T08:05:47;11.70;99.90
22940;DHT22;11636;52.086;5.090;2024-02-15T08:08:14;11.70;99.90
22940;DHT22;11636;52.086;5.090;2024-02-15T08:10:48;11.70;99.90
22940;DHT22;11636;52.086;5.090;2024-02-15T08:13:18;11.70;99.90
22940;DHT22;11636;52.086;5.090;2024-02-15T08:15:55;11.70;99.90
22940;DHT22;11636;52.086;5.090;2024-02-15T08:18:29;11.70;99.90
22940;DHT22;11636;52.086;5.090;2024-02-15T08:21:03;11.80;99.90
22940;DHT22;11636;52.086;5.090;2024-02-15T08:23:37;11.70;99.90
22940;DHT22;11636;52.086;5.090;2024-02-15T08:26:05;11.70;99.90
22940;DHT22;11636;52.086;5.090;2024-02-15T08:28:38;11.80;99.90
22940;DHT22;11636;52.086;5.090;2024-02-15T08:31:05;11.80;99.90
22940;DHT22;11636;52.086;5.090;2024-02-15T08:33:41;11.80;99.90
22940;DHT22;11636;52.086;5.090;2024-02-15T08:36:09;11.90;99.90
22940;DHT22;11636;52.086;5.090;2024-02-15T08:38:43;11.90;99.90
22940;DHT22;11636;52.086;5.090;2024-02-15T08:41:12;11.90;99.90
22940;DHT22;11636;52.086;5.090;2024-02-15T08:43:39;12.00;99.90
22940;DHT22;11636;52.086;5.090;2024-02-15T08:46:15;12.00;99.90
22940;DHT22;11636;52.086;5.090;2024-02-15T08:48:41;12.00;99.90
22940;DHT22;11636;52.086;5.090;2024-02-15T08:51:15;12.00;99.90
22940;DHT22;11636;52.086;5.090;2024-02-15T08:53:43;12.00;99.90
22940;DHT22;11636;52.086;5.090;2024-02-15T08:56:16;11.90;99.90
22940;DHT22;11636;52.086;5.090;2024-02-15T08:58:43;11.90;99.90
22940;DHT22;11636;52.086;5.090;2024-02-15T09:01:16;12.00;99.90
22940;DHT22;11636;52.086;5.090;2024-02-15T09:03:43;11.90;99.90
22940;DHT22;11636;52.086;5.090;2024-02-15T09:06:12;11.90;99.90
22940;DHT22;11636;52.086;5.090;2024-02-15T09:08:46;11.90;99.90
22940;DHT22;11636;52.086;5.090;2024-02-15T09:11:13;11.90;99.90
22940;DHT22;11636;52.086;5.090;2024-02-15T09:13:46;12.00;99.90
22940;DHT22;11636;52.086;5.090;2024-02-15T09:16:16;12.00;99.90
22940;DHT22;11636;52.086;5.090;2024-02-15T09:18:49;12.10;99.90
22940;DHT22;11636;52.086;5.090;2024-02-15T09:21:17;12.10;99.90
22940;DHT22;11636;52.086;5.090;2024-02-15T09:23:50;12.10;99.90
22940;DHT22;11636;52.086;5.090;2024-02-15T09:26:23;12.10;99.90
22940;DHT22;11636;52.086;5.090;2024-02-15T09:28:50;12.20;99.90
22940;DHT22;11636;52.086;5.090;2024-02-15T09:31:23;12.20;99.90
22940;DHT22;11636;52.086;5.090;2024-02-15T09:33:51;12.30;99.90
22940;DHT22;11636;52.086;5.090;2024-02-15T09:36:26;12.30;99.90
22940;DHT22;11636;52.086;5.090;2024-02-15T09:38:55;12.30;99.90
22940;DHT22;11636;52.086;5.090;2024-02-15T09:41:28;12.40;99.90
22940;DHT22;11636;52.086;5.090;2024-02-15T09:44:01;12.40;99.90
22940;DHT22;11636;52.086;5.090;2024-02-15T09:46:42;12.50;99.90
22940;DHT22;11636;52.086;5.090;2024-02-15T09:49:12;12.50;99.90
22940;DHT22;11636;52.086;5.090;2024-02-15T09:51:47;12.50;99.90
22940;DHT22;11636;52.086;5.090;2024-02-15T09:54:15;12.50;99.90
22940;DHT22;11636;52.086;5.090;2024-02-15T09:56:56;12.60;99.90
22940;DHT22;11636;52.086;5.090;2024-02-15T09:59:33;12.60;99.90
22940;DHT22;11636;52.086;5.090;2024-02-15T10:02:03;12.70;99.90
22940;DHT22;11636;52.086;5.090;2024-02-15T10:04:40;12.70;99.90
22940;DHT22;11636;52.086;5.090;2024-02-15T10:07:17;12.70;99.90
22940;DHT22;11636;52.086;5.090;2024-02-15T10:09:51;12.90;99.90
22940;DHT22;11636;52.086;5.090;2024-02-15T10:12:18;12.90;99.90
22940;DHT22;11636;52.086;5.090;2024-02-15T10:14:53;12.90;99.90
22940;DHT22;11636;52.086;5.090;2024-02-15T10:17:20;13.00;99.90
22940;DHT22;11636;52.086;5.090;2024-02-15T10:20:03;13.00;99.90
22940;DHT22;11636;52.086;5.090;2024-02-15T10:22:31;13.00;99.90
22940;DHT22;11636;52.086;5.090;2024-02-15T10:25:11;13.10;99.90
22940;DHT22;11636;52.086;5.090;2024-02-15T10:27:40;13.20;99.90
22940;DHT22;11636;52.086;5.090;2024-02-15T10:30:23;13.30;99.90
22940;DHT22;11636;52.086;5.090;2024-02-15T10:32:57;13.40;99.90
22940;DHT22;11636;52.086;5.090;2024-02-15T10:35:25;13.40;99.90
22940;DHT22;11636;52.086;5.090;2024-02-15T10:38:06;13.40;99.90
22940;DHT22;11636;52.086;5.090;2024-02-15T10:40:46;13.40;99.90
22940;DHT22;11636;52.086;5.090;2024-02-15T10:43:16;13.50;99.90
22940;DHT22;11636;52.086;5.090;2024-02-15T10:45:50;13.50;99.90
22940;DHT22;11636;52.086;5.090;2024-02-15T10:48:19;13.60;99.90
22940;DHT22;11636;52.086;5.090;2024-02-15T10:50:54;13.70;99.90
22940;DHT22;11636;52.086;5.090;2024-02-15T10:53:31;13.80;99.90
22940;DHT22;11636;52.086;5.090;2024-02-15T10:56:15;13.80;99.90
22940;DHT22;11636;52.086;5.090;2024-02-15T10:59:10;13.70;99.90
22940;DHT22;11636;52.086;5.090;2024-02-15T11:01:50;13.70;99.90
22940;DHT22;11636;52.086;5.090;2024-02-15T11:04:30;13.70;99.90
22940;DHT22;11636;52.086;5.090;2024-02-15T11:06:59;13.60;99.90
22940;DHT22;11636;52.086;5.090;2024-02-15T11:09:35;13.50;99.90
22940;DHT22;11636;52.086;5.090;2024-02-15T11:12:03;13.50;99.90
22940;DHT22;11636;52.086;5.090;2024-02-15T11:14:36;13.50;99.90
22940;DHT22;11636;52.086;5.090;2024-02-15T11:17:03;13.50;99.90
22940;DHT22;11636;52.086;5.090;2024-02-15T11:19:41;13.50;99.90
22940;DHT22;11636;52.086;5.090;2024-02-15T11:22:23;13.60;99.90
22940;DHT22;11636;52.086;5.090;2024-02-15T11:24:56;13.70;99.90
22940;DHT22;11636;52.086;5.090;2024-02-15T11:27:30;13.80;99.90
22940;DHT22;11636;52.086;5.090;2024-02-15T11:30:06;13.80;99.90
22940;DHT22;11636;52.086;5.090;2024-02-15T11:32:43;13.80;99.90
22940;DHT22;11636;52.086;5.090;2024-02-15T11:35:25;13.80;99.90
22940;DHT22;11636;52.086;5.090;2024-02-15T11:37:59;13.80;99.90
22940;DHT22;11636;52.086;5.090;2024-02-15T11:43:08;13.90;99.90
22940;DHT22;11636;52.086;5.090;2024-02-15T11:45:41;14.00;99.90
22940;DHT22;11636;52.086;5.090;2024-02-15T11:48:10;14.10;99.90
22940;DHT22;11636;52.086;5.090;2024-02-15T11:50:41;14.20;99.90
22940;DHT22;11636;52.086;5.090;2024-02-15T11:53:14;14.30;99.90
22940;DHT22;11636;52.086;5.090;2024-02-15T11:55:50;14.40;99.90
22940;DHT22;11636;52.086;5.090;2024-02-15T11:58:26;14.50;99.90
22940;DHT22;11636;52.086;5.090;2024-02-15T12:01:15;14.50;99.90
22940;DHT22;11636;52.086;5.090;2024-02-15T12:04:07;14.70;99.90
22940;DHT22;11636;52.086;5.090;2024-02-15T12:06:59;14.90;99.90
22940;DHT22;11636;52.086;5.090;2024-02-15T12:09:58;15.00;99.90
22940;DHT22;11636;52.086;5.090;2024-02-15T12:12:54;15.10;99.90
22940;DHT22;11636;52.086;5.090;2024-02-15T12:15:58;15.20;99.90
22940;DHT22;11636;52.086;5.090;2024-02-15T12:18:45;15.30;99.90
22940;DHT22;11636;52.086;5.090;2024-02-15T12:21:24;15.30;99.90
22940;DHT22;11636;52.086;5.090;2024-02-15T12:23:52;15.30;99.90
22940;DHT22;11636;52.086;5.090;2024-02-15T12:26:25;15.30;99.90
22940;DHT22;11636;52.086;5.090;2024-02-15T12:28:54;15.40;99.90
22940;DHT22;11636;52.086;5.090;2024-02-15T12:31:22;15.50;99.90
22940;DHT22;11636;52.086;5.090;2024-02-15T12:34:05;15.60;99.90
22940;DHT22;11636;52.086;5.090;2024-02-15T12:36:42;15.70;99.90
22940;DHT22;11636;52.086;5.090;2024-02-15T12:39:09;15.90;99.90
22940;DHT22;11636;52.086;5.090;2024-02-15T12:41:50;16.00;99.90
22940;DHT22;11636;52.086;5.090;2024-02-15T12:44:24;16.10;99.90
22940;DHT22;11636;52.086;5.090;2024-02-15T12:46:54;16.10;99.90
22940;DHT22;11636;52.086;5.090;2024-02-15T12:49:32;16.10;99.90
22940;DHT22;11636;52.086;5.090;2024-02-15T12:52:41;16.30;99.90
22940;DHT22;11636;52.086;5.090;2024-02-15T12:55:18;16.30;99.90
22940;DHT22;11636;52.086;5.090;2024-02-15T12:57:54;16.10;99.90
22940;DHT22;11636;52.086;5.090;2024-02-15T13:00:31;16.00;99.90
22940;DHT22;11636;52.086;5.090;2024-02-15T13:03:02;15.90;99.90
22940;DHT22;11636;52.086;5.090;2024-02-15T13:05:38;15.90;99.90
22940;DHT22;11636;52.086;5.090;2024-02-15T13:08:07;16.10;99.90
22940;DHT22;11636;52.086;5.090;2024-02-15T13:10:46;16.40;99.90
22940;DHT22;11636;52.086;5.090;2024-02-15T13:13:20;16.70;99.90
22940;DHT22;11636;52.086;5.090;2024-02-15T13:15:48;16.90;99.90
22940;DHT22;11636;52.086;5.090;2024-02-15T13:18:21;16.90;99.90
22940;DHT22;11636;52.086;5.090;2024-02-15T13:20:48;16.90;99.90
22940;DHT22;11636;52.086;5.090;2024-02-15T13:23:29;16.80;99.90
22940;DHT22;11636;52.086;5.090;2024-02-15T13:26:04;16.80;99.90
22940;DHT22;11636;52.086;5.090;2024-02-15T13:28:31;16.80;99.90
22940;DHT22;11636;52.086;5.090;2024-02-15T13:31:04;16.80;99.90
22940;DHT22;11636;52.086;5.090;2024-02-15T13:33:40;16.80;99.90
22940;DHT22;11636;52.086;5.090;2024-02-15T13:36:07;16.80;99.90
22940;DHT22;11636;52.086;5.090;2024-02-15T13:38:44;16.70;99.90
22940;DHT22;11636;52.086;5.090;2024-02-15T13:41:11;16.60;99.90
22940;DHT22;11636;52.086;5.090;2024-02-15T13:43:38;16.50;99.90
22940;DHT22;11636;52.086;5.090;2024-02-15T13:46:14;16.40;99.90
22940;DHT22;11636;52.086;5.090;2024-02-15T13:48:41;16.40;99.90
22940;DHT22;11636;52.086;5.090;2024-02-15T13:51:17;16.20;99.90
22940;DHT22;11636;52.086;5.090;2024-02-15T13:53:44;16.10;99.90
22940;DHT22;11636;52.086;5.090;2024-02-15T13:56:17;16.00;99.90
22940;DHT22;11636;52.086;5.090;2024-02-15T13:58:43;15.90;99.90
22940;DHT22;11636;52.086;5.090;2024-02-15T14:01:11;15.90;99.90
22940;DHT22;11636;52.086;5.090;2024-02-15T14:03:47;15.80;99.90
22940;DHT22;11636;52.086;5.090;2024-02-15T14:06:21;15.80;99.90
22940;DHT22;11636;52.086;5.090;2024-02-15T14:08:48;15.80;99.90
22940;DHT22;11636;52.086;5.090;2024-02-15T14:11:15;15.80;99.90
22940;DHT22;11636;52.086;5.090;2024-02-15T14:13:48;15.80;99.90
22940;DHT22;11636;52.086;5.090;2024-02-15T14:16:14;15.90;99.90
22940;DHT22;11636;52.086;5.090;2024-02-15T14:18:50;15.90;99.90
22940;DHT22;11636;52.086;5.090;2024-02-15T14:21:18;15.90;99.90
22940;DHT22;11636;52.086;5.090;2024-02-15T14:23:52;16.00;99.90
22940;DHT22;11636;52.086;5.090;2024-02-15T14:26:19;16.00;99.90
22940;DHT22;11636;52.086;5.090;2024-02-15T14:28:48;16.10;99.90
22940;DHT22;11636;52.086;5.090;2024-02-15T14:31:23;16.20;99.90
22940;DHT22;11636;52.086;5.090;2024-02-15T14:34:15;16.20;99.90
22940;DHT22;11636;52.086;5.090;2024-02-15T14:36:42;16.30;99.90
22940;DHT22;11636;52.086;5.090;2024-02-15T14:39:09;16.30;99.90
22940;DHT22;11636;52.086;5.090;2024-02-15T14:41:43;16.30;99.90
22940;DHT22;11636;52.086;5.090;2024-02-15T14:44:16;16.30;99.90
22940;DHT22;11636;52.086;5.090;2024-02-15T14:46:49;16.40;99.90
22940;DHT22;11636;52.086;5.090;2024-02-15T14:49:15;16.30;99.90
22940;DHT22;11636;52.086;5.090;2024-02-15T14:51:50;16.30;99.90
22940;DHT22;11636;52.086;5.090;2024-02-15T14:54:17;16.20;99.90
22940;DHT22;11636;52.086;5.090;2024-02-15T14:56:49;16.10;99.90
22940;DHT22;11636;52.086;5.090;2024-02-15T14:59:23;16.00;99.90
22940;DHT22;11636;52.086;5.090;2024-02-15T15:01:56;15.90;99.90
22940;DHT22;11636;52.086;5.090;2024-02-15T15:04:28;15.80;99.90
22940;DHT22;11636;52.086;5.090;2024-02-15T15:07:08;15.70;99.90
22940;DHT22;11636;52.086;5.090;2024-02-15T15:10:00;15.70;99.90
22940;DHT22;11636;52.086;5.090;2024-02-15T15:12:52;15.60;99.90
22940;DHT22;11636;52.086;5.090;2024-02-15T15:15:19;15.50;99.90
22940;DHT22;11636;52.086;5.090;2024-02-15T15:17:52;15.50;99.90
22940;DHT22;11636;52.086;5.090;2024-02-15T15:20:19;15.50;99.90
22940;DHT22;11636;52.086;5.090;2024-02-15T15:22:53;15.40;99.90
22940;DHT22;11636;52.086;5.090;2024-02-15T15:25:23;15.40;99.90
22940;DHT22;11636;52.086;5.090;2024-02-15T15:27:50;15.30;99.90
22940;DHT22;11636;52.086;5.090;2024-02-15T15:30:24;15.20;99.90
22940;DHT22;11636;52.086;5.090;2024-02-15T15:32:51;15.20;99.90
22940;DHT22;11636;52.086;5.090;2024-02-15T15:35:26;15.10;99.90
22940;DHT22;11636;52.086;5.090;2024-02-15T15:38:00;15.00;99.90
22940;DHT22;11636;52.086;5.090;2024-02-15T15:40:27;15.00;99.90
22940;DHT22;11636;52.086;5.090;2024-02-15T15:43:01;15.00;99.90
22940;DHT22;11636;52.086;5.090;2024-02-15T15:45:29;14.90;99.90
22940;DHT22;11636;52.086;5.090;2024-02-15T15:48:03;14.80;99.90
22940;DHT22;11636;52.086;5.090;2024-02-15T15:50:30;14.80;99.90
22940;DHT22;11636;52.086;5.090;2024-02-15T15:53:06;14.70;99.90
22940;DHT22;11636;52.086;5.090;2024-02-15T15:55:39;14.70;99.90
22940;DHT22;11636;52.086;5.090;2024-02-15T15:58:12;14.60;99.90
22940;DHT22;11636;52.086;5.090;2024-02-15T16:00:39;14.60;99.90
22940;DHT22;11636;52.086;5.090;2024-02-15T16:03:06;14.60;99.90
22940;DHT22;11636;52.086;5.090;2024-02-15T16:05:39;14.60;99.90